Time;durP1;ratioP1;P1;durP2;ratioP2;P2;SDS_P1;SDS_P2;PMS_P1;PMS_P2;Temp;Humidity;BMP_temperature;BMP_pressure;BME280_temperature;BME280_humidity;BME280_pressure;Samples;Min_cycle;Max_cycle;Signal;HPM_P1;HPM_P2
2022/05/09 00:02:10;;;;;;;8.98;3.83;;;;;;;9.68;61.38;102703.28;5025377;28;20370;-62
2022/05/09 00:04:37;;;;;;;11.75;4.10;;;;;;;9.65;61.51;102704.28;5030406;28;20025;-61
2022/05/09 00:07:03;;;;;;;12.85;4.10;;;;;;;9.54;61.68;102707.38;5030373;28;20087;-62
2022/05/09 00:09:29;;;;;;;10.85;3.90;;;;;;;9.60;61.70;102705.41;5029692;28;20033;-62
2022/05/09 00:11:54;;;;;;;11.90;3.90;;;;;;;9.58;61.56;102701.16;5030253;28;20424;-63
2022/05/09 00:14:20;;;;;;;11.30;4.03;;;;;;;9.53;61.72;102695.34;5029813;28;20373;-62
2022/05/09 00:16:46;;;;;;;11.63;4.15;;;;;;;9.31;62.28;102679.13;5030084;28;20030;-62
2022/05/09 00:19:13;;;;;;;10.98;4.00;;;;;;;9.38;62.45;102696.06;5029454;28;20025;-62
2022/05/09 00:21:40;;;;;;;11.77;4.10;;;;;;;9.46;62.27;102699.13;5029993;28;20025;-62
2022/05/09 00:24:08;;;;;;;11.10;3.90;;;;;;;9.35;62.79;102690.16;5044735;28;20080;-61
2022/05/09 00:26:33;;;;;;;15.05;4.35;;;;;;;9.38;62.70;102684.84;5029708;28;20034;-61
2022/05/09 00:28:59;;;;;;;12.95;4.40;;;;;;;9.37;62.93;102693.53;5045279;28;20512;-62
2022/05/09 00:31:26;;;;;;;11.05;3.80;;;;;;;9.30;63.50;102687.81;5028165;28;20140;-61
2022/05/09 00:33:52;;;;;;;11.52;3.85;;;;;;;9.30;62.84;102687.81;5029404;28;20207;-61
2022/05/09 00:36:17;;;;;;;11.55;4.10;;;;;;;9.25;63.56;102679.41;5029329;28;20033;-61
2022/05/09 00:38:44;;;;;;;12.32;4.15;;;;;;;9.28;63.36;102684.44;5029496;28;20350;-62
2022/05/09 00:43:55;;;;;;;10.52;4.13;;;;;;;9.21;63.42;102678.69;5030306;28;20087;-62
2022/05/09 00:46:20;;;;;;;10.65;4.05;;;;;;;9.16;63.55;102675.47;5029555;28;20064;-62
2022/05/09 00:48:46;;;;;;;14.02;4.60;;;;;;;9.20;63.54;102676.19;5029402;28;20083;-62
2022/05/09 00:51:14;;;;;;;13.98;4.47;;;;;;;9.09;64.62;102673.25;5029353;28;20446;-63
2022/05/09 00:53:40;;;;;;;12.80;4.47;;;;;;;9.18;63.98;102672.84;5028325;28;20057;-62
2022/05/09 00:56:14;;;;;;;13.18;4.20;;;;;;;9.14;64.57;102681.66;5029293;28;20048;-62
2022/05/09 00:58:46;;;;;;;10.73;3.97;;;;;;;9.04;64.88;102682.06;5029414;28;20025;-62
2022/05/09 01:01:13;;;;;;;12.40;4.20;;;;;;;9.07;64.94;102675.94;5028434;28;20521;-62
2022/05/09 01:03:44;;;;;;;10.80;4.20;;;;;;;8.98;64.55;102677.16;5029169;28;20037;-62
2022/05/09 01:06:10;;;;;;;12.85;4.75;;;;;;;9.00;64.52;102669.31;5028650;28;20412;-61
2022/05/09 01:08:36;;;;;;;14.50;4.93;;;;;;;8.89;65.58;102667.25;5028946;28;20064;-62
2022/05/09 01:11:11;;;;;;;11.38;4.63;;;;;;;8.85;65.50;102663.09;5028817;28;20040;-62
2022/05/09 01:13:45;;;;;;;12.88;4.53;;;;;;;8.93;65.53;102658.41;5029192;28;20045;-62
2022/05/09 01:16:11;;;;;;;11.88;4.75;;;;;;;8.79;66.09;102655.63;5022302;28;20072;-63
2022/05/09 01:18:37;;;;;;;11.40;5.00;;;;;;;8.86;65.68;102666.53;5009508;28;20108;-61
2022/05/09 01:21:41;;;;;;;13.48;4.93;;;;;;;8.95;65.53;102663.53;5010164;28;20064;-62
2022/05/09 01:24:19;;;;;;;12.75;4.90;;;;;;;8.79;66.13;102663.38;5028811;28;20037;-61
2022/05/09 01:26:45;;;;;;;13.23;5.20;;;;;;;8.79;66.28;102660.81;5026968;28;20045;-62
2022/05/09 01:29:21;;;;;;;13.13;4.90;;;;;;;8.76;66.72;102658.34;5028340;28;20280;-65
2022/05/09 01:31:49;;;;;;;12.20;4.82;;;;;;;8.68;66.55;102658.69;5028683;28;20078;-63
2022/05/09 01:34:16;;;;;;;11.53;4.70;;;;;;;8.73;66.22;102656.75;5028025;28;20029;-61
2022/05/09 01:36:42;;;;;;;10.73;4.63;;;;;;;8.66;66.72;102646.72;5027840;28;20053;-62
2022/05/09 01:39:11;;;;;;;12.60;5.00;;;;;;;8.64;66.95;102651.97;5028013;28;20537;-65
2022/05/09 01:41:38;;;;;;;;;;;;;;;8.91;65.08;102649.91;5029353;28;20041;-61
2022/05/09 01:44:03;;;;;;;13.25;5.07;;;;;;;8.61;67.22;102640.94;5028592;28;20284;-65
2022/05/09 01:46:30;;;;;;;15.10;4.97;;;;;;;8.62;67.13;102647.78;5027111;28;20447;-62
2022/05/09 01:51:42;;;;;;;14.20;5.18;;;;;;;8.66;67.24;102649.28;5008799;28;20560;-62
2022/05/09 01:54:08;;;;;;;13.65;4.95;;;;;;;8.53;67.54;102643.84;5007067;28;20569;-63
2022/05/09 01:56:36;;;;;;;16.50;4.85;;;;;;;8.61;67.19;102638.34;5008603;28;20025;-62
2022/05/09 01:59:04;;;;;;;13.32;4.80;;;;;;;8.50;67.59;102642.22;5027074;28;20029;-63
2022/05/09 02:01:36;;;;;;;13.63;5.40;;;;;;;8.43;67.78;102646.00;5028092;28;20033;-62
2022/05/09 02:04:02;;;;;;;13.68;5.07;;;;;;;8.45;68.40;102646.75;5027798;28;20025;-62
2022/05/09 02:06:27;;;;;;;14.43;5.30;;;;;;;8.40;67.72;102628.03;5027035;28;20033;-63
2022/05/09 02:08:52;;;;;;;14.25;5.25;;;;;;;8.47;68.26;102644.94;5042974;28;20423;-63
2022/05/09 02:11:18;;;;;;;12.07;4.32;;;;;;;8.52;68.37;102652.50;5027599;28;20471;-62
2022/05/09 02:13:44;;;;;;;15.23;5.60;;;;;;;8.25;68.91;102644.16;5027456;28;20481;-62
2022/05/09 02:16:09;;;;;;;14.15;5.25;;;;;;;8.35;68.65;102649.78;5027685;28;20497;-62
2022/05/09 02:18:36;;;;;;;15.23;5.35;;;;;;;8.39;68.55;102652.19;5027732;28;20025;-62
2022/05/09 02:21:02;;;;;;;17.08;5.57;;;;;;;8.30;68.62;102655.13;5027448;28;20034;-62
2022/05/09 02:23:27;;;;;;;13.35;5.22;;;;;;;8.41;68.04;102650.38;5027762;28;20021;-62
2022/05/09 02:25:53;;;;;;;14.00;5.60;;;;;;;8.20;68.76;102635.75;5027221;28;20458;-62
2022/05/09 02:28:20;;;;;;;11.77;5.40;;;;;;;8.28;69.01;102644.03;5027553;28;20366;-62
2022/05/09 02:30:45;;;;;;;13.57;6.07;;;;;;;8.19;69.38;102628.91;5027776;28;20036;-62
2022/05/09 02:33:11;;;;;;;14.45;5.57;;;;;;;8.11;69.71;102643.91;5026919;28;20038;-62
2022/05/09 02:35:38;;;;;;;13.88;5.55;;;;;;;8.11;69.83;102636.16;5027574;28;20056;-63
2022/05/09 02:38:04;;;;;;;15.75;5.90;;;;;;;8.10;70.02;102639.66;5026538;28;20029;-62
2022/05/09 02:40:30;;;;;;;16.00;6.15;;;;;;;7.96;70.52;102633.28;5026737;28;20072;-62
2022/05/09 02:42:58;;;;;;;15.45;5.82;;;;;;;8.01;70.28;102634.84;5027332;28;20061;-62
2022/05/09 02:45:25;;;;;;;13.70;5.82;;;;;;;8.02;70.46;102637.38;5027391;28;20021;-62
2022/05/09 02:47:50;;;;;;;15.57;5.53;;;;;;;8.14;69.46;102641.19;5027275;28;20021;-63
2022/05/09 02:50:16;;;;;;;16.52;5.75;;;;;;;8.08;70.38;102638.84;5027055;28;20476;-62
2022/05/09 02:52:42;;;;;;;12.55;5.72;;;;;;;8.07;69.64;102634.59;5025193;28;20029;-62
2022/05/09 02:55:09;;;;;;;16.50;5.47;;;;;;;8.04;70.33;102639.91;5024398;28;20096;-63
2022/05/09 02:57:36;;;;;;;14.95;5.60;;;;;;;7.99;69.74;102637.50;5026420;28;20515;-61
2022/05/09 03:00:07;;;;;;;16.48;5.93;;;;;;;8.07;69.62;102639.75;5022930;28;20021;-61
2022/05/09 03:02:33;;;;;;;16.67;5.72;;;;;;;7.88;70.75;102630.19;5025376;28;20036;-62
2022/05/09 03:04:58;;;;;;;15.90;5.70;;;;;;;7.97;70.38;102631.53;5026494;28;20017;-62
2022/05/09 03:07:24;;;;;;;14.77;6.25;;;;;;;7.87;70.61;102618.19;5026480;28;20037;-61
2022/05/09 03:09:50;;;;;;;14.98;6.00;;;;;;;7.87;70.89;102619.94;5027003;28;20096;-62
2022/05/09 03:12:19;;;;;;;15.60;6.43;;;;;;;7.82;70.78;102619.28;5026421;28;20050;-61
2022/05/09 03:14:46;;;;;;;17.38;6.20;;;;;;;7.75;71.56;102623.03;5026751;28;20056;-62
2022/05/09 03:17:12;;;;;;;14.35;5.55;;;;;;;7.83;70.89;102616.63;5025429;28;20035;-62
2022/05/09 03:19:38;;;;;;;13.88;5.78;;;;;;;7.83;71.20;102619.22;5024696;28;20038;-61
2022/05/09 03:22:03;;;;;;;16.25;5.95;;;;;;;7.82;70.69;102614.97;5025465;28;20416;-61
2022/05/09 03:24:29;;;;;;;15.10;5.97;;;;;;;7.85;70.74;102619.97;5006565;28;20036;-62
2022/05/09 03:26:55;;;;;;;15.90;6.65;;;;;;;7.69;71.17;102613.78;5007058;28;20032;-62
2022/05/09 03:29:20;;;;;;;12.93;5.53;;;;;;;7.77;71.23;102611.72;5023943;28;20033;-62
2022/05/09 03:31:47;;;;;;;17.20;6.85;;;;;;;7.72;71.83;102613.66;5026070;28;20406;-62
2022/05/09 03:34:14;;;;;;;15.43;6.00;;;;;;;7.64;71.07;102610.56;5025917;28;20033;-61
2022/05/09 03:36:40;;;;;;;14.75;6.38;;;;;;;7.72;71.73;102619.66;5026334;28;20457;-62
2022/05/09 03:39:06;;;;;;;13.88;5.57;;;;;;;7.68;71.75;102620.69;5024438;28;20029;-62
2022/05/09 03:41:31;;;;;;;17.25;6.68;;;;;;;7.67;71.65;102615.56;5024643;28;20038;-62
2022/05/09 03:43:56;;;;;;;15.60;6.30;;;;;;;7.60;72.54;102609.00;5026139;28;20480;-62
2022/05/09 03:46:22;;;;;;;15.90;6.65;;;;;;;7.66;71.82;102613.91;5022656;28;20145;-62
2022/05/09 03:48:48;;;;;;;15.23;6.50;;;;;;;7.59;71.50;102607.31;5017665;28;20376;-62
2022/05/09 03:51:13;;;;;;;12.85;6.00;;;;;;;7.51;71.97;102614.50;5015593;28;20128;-62
2022/05/09 03:53:38;;;;;;;14.65;6.03;;;;;;;7.52;71.71;102608.47;5009834;28;20912;-63
2022/05/09 03:56:05;;;;;;;14.45;6.30;;;;;;;7.44;72.60;102604.44;5017723;28;20022;-63
2022/05/09 03:58:30;;;;;;;15.82;6.28;;;;;;;7.48;71.64;102609.47;5034612;28;20053;-62
2022/05/09 04:00:56;;;;;;;14.93;6.28;;;;;;;7.50;72.07;102605.94;5018113;28;20054;-61
2022/05/09 04:03:21;;;;;;;13.82;6.32;;;;;;;7.47;72.47;102605.22;5016830;28;20029;-67
2022/05/09 04:05:47;;;;;;;14.43;6.50;;;;;;;7.36;72.98;102595.31;5018936;28;20476;-62
2022/05/09 04:08:16;;;;;;;17.20;6.63;;;;;;;7.32;72.64;102610.09;5016955;28;20049;-62
2022/05/09 04:10:44;;;;;;;15.57;6.95;;;;;;;7.43;72.87;102607.91;5024021;28;20508;-62
2022/05/09 04:13:09;;;;;;;16.35;6.45;;;;;;;7.35;72.71;102597.06;5020168;28;20049;-61
2022/05/09 04:18:23;;;;;;;14.73;6.32;;;;;;;7.47;72.33;102598.31;5010500;28;20076;-62
2022/05/09 04:20:50;;;;;;;15.43;6.63;;;;;;;7.50;72.71;102608.50;5017074;28;20037;-62
2022/05/09 04:23:16;;;;;;;14.60;6.38;;;;;;;7.37;73.12;102591.84;5026107;28;20515;-62
2022/05/09 04:25:43;;;;;;;15.52;6.80;;;;;;;7.30;73.63;102585.25;5026093;28;20030;-62
2022/05/09 04:28:09;;;;;;;16.23;6.68;;;;;;;7.41;72.46;102586.50;5009978;28;20040;-62
2022/05/09 04:30:36;;;;;;;16.13;7.07;;;;;;;7.41;73.09;102583.91;5012645;28;20072;-62
2022/05/09 04:33:04;;;;;;;16.20;7.22;;;;;;;7.39;72.77;102595.19;5026148;28;20029;-62
2022/05/09 04:35:30;;;;;;;14.20;6.70;;;;;;;7.36;72.87;102585.84;5040847;28;20033;-66
2022/05/09 04:37:56;;;;;;;13.93;7.15;;;;;;;7.28;72.79;102580.13;5026283;28;20748;-61
2022/05/09 04:40:24;;;;;;;15.90;6.70;;;;;;;7.50;71.71;102582.69;5025939;28;20030;-63
2022/05/09 04:42:50;;;;;;;16.23;6.72;;;;;;;7.49;72.25;102601.66;5026227;28;20052;-62
2022/05/09 04:45:17;;;;;;;11.88;5.07;;;;;;;7.49;72.10;102595.66;5025113;28;20127;-63
2022/05/09 04:47:45;;;;;;;15.63;6.70;;;;;;;7.40;72.59;102592.56;5025962;28;20122;-62
2022/05/09 04:50:12;;;;;;;12.68;6.68;;;;;;;7.42;72.59;102590.75;5027532;28;20029;-62
2022/05/09 04:52:38;;;;;;;15.17;6.80;;;;;;;7.49;73.10;102600.84;5029793;28;20075;-62
2022/05/09 04:55:04;;;;;;;15.63;6.78;;;;;;;7.49;73.14;102587.91;5029487;28;20392;-62
2022/05/09 04:57:30;;;;;;;16.30;7.30;;;;;;;7.50;73.54;102592.19;5044422;28;20037;-63
2022/05/09 04:59:57;;;;;;;13.60;5.68;;;;;;;7.64;72.25;102584.72;5028834;28;20104;-61
2022/05/09 05:02:22;;;;;;;13.82;6.80;;;;;;;7.48;73.06;102579.34;5027860;28;20473;-62
2022/05/09 05:04:47;;;;;;;15.00;7.10;;;;;;;7.59;72.78;102581.50;5029586;28;20036;-62
2022/05/09 05:07:13;;;;;;;14.10;5.32;;;;;;;7.67;73.16;102584.59;5022513;28;20026;-62
2022/05/09 05:09:38;;;;;;;15.00;7.03;;;;;;;7.65;73.27;102576.06;5014052;28;20116;-63
2022/05/09 05:12:04;;;;;;;13.32;6.20;;;;;;;7.73;72.61;102574.00;5024978;28;20645;-62
2022/05/09 05:14:30;;;;;;;16.85;7.55;;;;;;;7.76;72.75;102579.06;5027036;28;20512;-62
2022/05/09 05:17:01;;;;;;;17.52;7.80;;;;;;;7.76;73.41;102579.06;5023178;28;20017;-62
2022/05/09 05:19:33;;;;;;;14.18;7.22;;;;;;;7.80;72.84;102574.56;5039046;28;20472;-63
2022/05/09 05:22:01;;;;;;;12.85;7.50;;;;;;;7.79;73.21;102573.75;5039193;28;20033;-62
2022/05/09 05:24:27;;;;;;;16.30;7.20;;;;;;;7.87;73.32;102573.44;5015650;28;20029;-62
2022/05/09 05:26:54;;;;;;;15.65;7.30;;;;;;;7.89;73.04;102575.03;5008585;28;20281;-62
2022/05/09 05:29:20;;;;;;;11.30;5.25;;;;;;;7.99;72.23;102571.16;5021650;28;20466;-62
2022/05/09 05:31:46;;;;;;;16.10;7.57;;;;;;;7.99;72.62;102576.34;5028218;28;20037;-63
2022/05/09 05:34:11;;;;;;;17.55;7.38;;;;;;;8.09;72.34;102578.53;5022887;28;20092;-62
2022/05/09 05:36:36;;;;;;;16.60;7.55;;;;;;;8.04;72.93;102575.31;5012936;28;20041;-65
2022/05/09 05:39:03;;;;;;;16.20;7.65;;;;;;;8.17;71.97;102584.19;5009003;28;20064;-62
2022/05/09 05:41:31;;;;;;;15.38;8.05;;;;;;;8.23;72.70;102573.59;5008702;28;20080;-67
2022/05/09 05:43:57;;;;;;;14.30;7.50;;;;;;;8.22;72.22;102577.09;5017059;28;20037;-62
2022/05/09 05:46:22;;;;;;;17.02;7.47;;;;;;;8.35;72.27;102577.38;5030915;28;20024;-63
2022/05/09 05:48:47;;;;;;;14.50;7.15;;;;;;;8.37;71.98;102576.47;5024589;28;20025;-63
2022/05/09 05:51:14;;;;;;;14.70;7.05;;;;;;;8.48;72.30;102579.38;5013412;28;20138;-62
2022/05/09 05:53:40;;;;;;;15.90;7.65;;;;;;;8.59;71.53;102572.88;5029690;28;20389;-64
2022/05/09 05:56:05;;;;;;;14.50;7.30;;;;;;;8.60;71.32;102582.31;5006957;28;20026;-62
2022/05/09 05:58:31;;;;;;;17.08;7.43;;;;;;;8.64;71.09;102574.38;5015191;28;20075;-62
2022/05/09 06:00:56;;;;;;;16.25;7.57;;;;;;;8.79;70.12;102578.00;5012581;28;20537;-66
2022/05/09 06:03:22;;;;;;;16.70;7.82;;;;;;;8.84;70.35;102576.06;5013837;28;20780;-63
2022/05/09 06:05:48;;;;;;;15.52;7.97;;;;;;;8.89;70.39;102568.91;5006631;28;20422;-62
2022/05/09 06:08:14;;;;;;;15.98;7.43;;;;;;;9.01;70.21;102568.34;5020115;28;20021;-61
2022/05/09 06:10:40;;;;;;;17.52;7.60;;;;;;;9.10;70.60;102571.41;5008414;28;20025;-62
2022/05/09 06:13:06;;;;;;;16.40;7.80;;;;;;;9.15;69.97;102579.78;5008178;28;20497;-62
2022/05/09 06:15:32;;;;;;;12.07;7.65;;;;;;;9.26;69.76;102577.53;5020366;28;20458;-62
2022/05/09 06:18:03;;;;;;;16.80;7.90;;;;;;;9.29;70.04;102577.38;5028158;28;20377;-62
2022/05/09 06:20:31;;;;;;;16.70;7.22;;;;;;;9.43;69.98;102580.13;5026503;28;20057;-62
2022/05/09 06:22:59;;;;;;;15.45;7.55;;;;;;;9.54;69.32;102577.03;5027881;28;20021;-65
2022/05/09 06:25:26;;;;;;;16.10;7.90;;;;;;;9.61;68.73;102572.38;5026359;28;20025;-62
2022/05/09 06:27:52;;;;;;;17.08;8.13;;;;;;;9.68;68.62;102574.56;5028098;28;20056;-62
2022/05/09 06:30:19;;;;;;;19.63;8.15;;;;;;;9.77;68.52;102583.66;5028751;28;20469;-64
2022/05/09 06:32:45;;;;;;;15.98;7.70;;;;;;;9.90;68.60;102582.13;5027408;28;20017;-64
2022/05/09 06:35:20;;;;;;;15.43;7.47;;;;;;;9.93;68.16;102578.53;5027008;28;20247;-64
2022/05/09 06:37:47;;;;;;;16.23;8.15;;;;;;;10.05;67.41;102581.34;5030445;28;20112;-65
2022/05/09 06:40:12;;;;;;;15.93;7.57;;;;;;;10.13;67.71;102575.75;5014492;28;20075;-64
2022/05/09 06:42:38;;;;;;;16.55;7.88;;;;;;;10.28;67.62;102576.75;5017747;28;20033;-64
2022/05/09 06:45:04;;;;;;;17.38;7.47;;;;;;;10.41;67.11;102564.81;5018218;28;20544;-65
2022/05/09 06:47:29;;;;;;;14.48;7.72;;;;;;;10.41;66.54;102564.81;5026912;28;20029;-64
2022/05/09 06:50:02;;;;;;;15.35;6.90;;;;;;;10.51;65.89;102571.19;5027238;28;20025;-64
2022/05/09 06:52:28;;;;;;;16.88;8.10;;;;;;;10.64;66.13;102567.00;5027021;28;20033;-67
2022/05/09 06:54:53;;;;;;;16.83;7.95;;;;;;;10.72;66.38;102570.94;5025189;28;20048;-64
2022/05/09 06:57:19;;;;;;;16.35;8.25;;;;;;;10.84;65.76;102573.72;5018089;28;20060;-64
2022/05/09 06:59:44;;;;;;;16.48;8.00;;;;;;;10.96;65.73;102566.19;5018281;28;20048;-64
2022/05/09 07:02:13;;;;;;;19.30;8.27;;;;;;;11.10;65.45;102574.88;5027157;28;20083;-64
2022/05/09 07:04:39;;;;;;;15.38;7.43;;;;;;;11.22;64.90;102569.91;5007464;28;20084;-67
2022/05/09 07:07:05;;;;;;;16.58;7.68;;;;;;;11.34;64.54;102564.00;5007176;28;20040;-64
2022/05/09 07:09:31;;;;;;;17.02;7.22;;;;;;;11.44;63.16;102555.59;5017729;28;20392;-64
2022/05/09 07:11:56;;;;;;;14.93;7.35;;;;;;;11.55;62.82;102565.38;5021362;28;20054;-67
2022/05/09 07:14:22;;;;;;;16.38;7.30;;;;;;;11.70;63.93;102558.47;5025645;28;20040;-64
2022/05/09 07:16:47;;;;;;;16.88;7.68;;;;;;;11.83;62.15;102558.59;5033491;28;20475;-65
2022/05/09 07:19:14;;;;;;;18.45;7.88;;;;;;;11.95;61.93;102563.91;5041537;28;20032;-64
2022/05/09 07:21:39;;;;;;;14.82;6.88;;;;;;;12.07;61.91;102562.34;5047269;28;20471;-65
2022/05/09 07:24:05;;;;;;;15.93;7.00;;;;;;;12.15;60.44;102554.91;5035560;28;20626;-65
2022/05/09 07:26:30;;;;;;;13.48;6.55;;;;;;;12.38;60.80;102574.31;5008907;28;20037;-65
2022/05/09 07:28:56;;;;;;;11.30;6.30;;;;;;;12.47;59.61;102565.94;5008652;28;20386;-64
2022/05/09 07:31:21;;;;;;;12.93;6.20;;;;;;;12.55;60.13;102568.06;5019037;28;20381;-64
2022/05/09 07:33:46;;;;;;;14.88;6.63;;;;;;;12.71;59.38;102567.94;5029697;28;20033;-65
2022/05/09 07:36:12;;;;;;;16.23;6.90;;;;;;;12.77;59.26;102563.19;5025112;28;20034;-64
2022/05/09 07:38:37;;;;;;;12.20;6.07;;;;;;;13.09;58.13;102567.28;5027469;28;20448;-63
2022/05/09 07:41:02;;;;;;;13.27;6.10;;;;;;;13.11;56.01;102562.81;5026611;28;20045;-64
2022/05/09 07:43:30;;;;;;;15.75;6.50;;;;;;;13.20;56.64;102550.03;5026226;28;20068;-64
2022/05/09 07:45:56;;;;;;;11.05;6.18;;;;;;;13.38;56.64;102560.22;5034851;28;20018;-64
2022/05/09 07:48:24;;;;;;;14.70;6.28;;;;;;;13.50;55.73;102562.00;5006762;28;20076;-66
2022/05/09 07:50:50;;;;;;;13.45;6.72;;;;;;;13.61;56.32;102562.13;5021957;28;20022;-64
2022/05/09 07:53:24;;;;;;;11.45;5.72;;;;;;;13.74;54.96;102559.53;5006621;28;20053;-64
2022/05/09 07:55:50;;;;;;;14.73;6.03;;;;;;;13.86;54.67;102563.91;5006628;28;20109;-68
2022/05/09 07:58:15;;;;;;;14.48;5.90;;;;;;;13.95;55.30;102565.09;5009596;28;20522;-64
2022/05/09 08:00:43;;;;;;;11.60;5.90;;;;;;;14.08;55.40;102568.50;5046312;28;20036;-63
2022/05/09 08:03:14;;;;;;;13.20;5.97;;;;;;;14.20;55.27;102557.22;5031880;28;20080;-64
2022/05/09 08:05:40;;;;;;;13.40;5.90;;;;;;;14.29;54.71;102561.81;5026314;28;20064;-64
2022/05/09 08:08:05;;;;;;;12.70;6.30;;;;;;;14.34;55.00;102551.91;5010766;28;20038;-64
2022/05/09 08:10:30;;;;;;;14.07;6.25;;;;;;;14.38;54.03;102554.28;5024829;28;20021;-63
2022/05/09 08:12:58;;;;;;;13.18;6.00;;;;;;;14.59;53.88;102558.03;5024704;28;20049;-64
2022/05/09 08:15:24;;;;;;;14.95;6.57;;;;;;;14.67;53.89;102563.53;5034339;28;20361;-64
2022/05/09 08:17:50;;;;;;;12.77;6.28;;;;;;;14.76;53.61;102555.03;5030899;28;20087;-63
2022/05/09 08:20:17;;;;;;;15.50;6.10;;;;;;;14.83;51.51;102556.25;5026480;28;20416;-64
2022/05/09 08:22:45;;;;;;;12.00;6.45;;;;;;;14.86;52.59;102560.44;5025941;28;20381;-64
2022/05/09 08:25:12;;;;;;;14.10;5.95;;;;;;;15.01;52.41;102561.09;5029374;28;20017;-64
2022/05/09 08:27:38;;;;;;;13.40;5.65;;;;;;;15.13;52.07;102562.81;5047591;28;20063;-63
2022/05/09 08:30:04;;;;;;;12.05;5.47;;;;;;;15.31;51.46;102561.47;5049945;28;20404;-66
2022/05/09 08:32:30;;;;;;;11.43;5.55;;;;;;;15.36;51.25;102559.34;5049928;28;20025;-63
2022/05/09 08:34:57;;;;;;;10.73;4.78;;;;;;;15.61;50.53;102563.59;5049786;28;20029;-64
2022/05/09 08:37:23;;;;;;;11.63;4.93;;;;;;;15.65;49.30;102554.59;5034347;28;20041;-64
2022/05/09 08:39:48;;;;;;;13.30;5.43;;;;;;;15.71;49.04;102555.88;5029840;28;20032;-65
2022/05/09 08:42:34;;;;;;;11.68;5.75;;;;;;;15.74;49.01;102565.31;5027548;28;20025;-64
2022/05/09 08:45:08;;;;;;;13.05;6.10;;;;;;;15.86;49.01;102552.13;5024005;28;20022;-64
2022/05/09 08:47:57;;;;;;;13.63;6.18;;;;;;;16.00;50.15;102558.06;5012423;28;20037;-65
2022/05/09 08:50:31;;;;;;;13.32;6.10;;;;;;;15.96;47.89;102554.03;5049119;28;20477;-64
2022/05/09 08:52:59;;;;;;;10.32;4.95;;;;;;;16.04;47.76;102554.25;5049991;28;20032;-63
2022/05/09 08:55:38;;;;;;;11.88;5.18;;;;;;;16.25;47.86;102560.47;5048965;28;20099;-64
2022/05/09 08:58:40;;;;;;;10.05;4.60;;;;;;;16.42;48.46;102559.13;5026366;28;20077;-64
2022/05/09 09:01:11;;;;;;;9.98;3.80;;;;;;;16.54;48.05;102563.41;5016198;28;20018;-63
2022/05/09 09:03:39;;;;;;;10.50;4.28;;;;;;;16.60;46.17;102551.59;5024700;28;20057;-63
2022/05/09 09:06:14;;;;;;;9.73;4.00;;;;;;;16.81;45.93;102556.97;5030747;28;20025;-64
2022/05/09 09:08:53;;;;;;;11.50;4.22;;;;;;;16.85;47.68;102553.94;5045725;28;20033;-63
2022/05/09 09:11:42;;;;;;;10.60;4.28;;;;;;;16.96;46.79;102543.41;5034736;28;20033;-63
2022/05/09 09:14:22;;;;;;;10.30;4.43;;;;;;;17.22;46.20;102548.34;5024431;28;20159;-64
2022/05/09 09:16:51;;;;;;;9.13;4.15;;;;;;;17.32;45.47;102544.00;5009380;28;20030;-64
2022/05/09 09:19:36;;;;;;;9.45;4.40;;;;;;;17.42;46.91;102537.00;5039876;28;20078;-63
2022/05/09 09:22:58;;;;;;;9.50;3.97;;;;;;;17.50;46.06;102541.63;5049208;28;20047;-64
2022/05/09 09:26:09;;;;;;;9.68;4.32;;;;;;;17.61;46.97;102538.09;4986319;28;20109;-63
2022/05/09 09:28:47;;;;;;;8.93;3.05;;;;;;;17.61;44.48;102543.34;4986578;28;20038;-67
2022/05/09 09:31:16;;;;;;;9.10;2.80;;;;;;;17.77;46.68;102533.22;4986260;28;20061;-64
2022/05/09 09:33:54;;;;;;;8.70;3.13;;;;;;;17.96;45.86;102532.50;4986888;28;20042;-65
2022/05/09 09:36:25;;;;;;;9.23;3.80;;;;;;;17.95;43.48;102525.56;4985979;28;20026;-64
2022/05/09 09:39:01;;;;;;;10.45;3.78;;;;;;;17.99;44.13;102525.19;4987445;28;20409;-63
2022/05/09 09:41:33;;;;;;;9.65;3.85;;;;;;;18.09;43.01;102532.28;4973591;28;20066;-64
2022/05/09 09:44:15;;;;;;;10.30;4.07;;;;;;;18.10;44.48;102529.50;4967436;28;20486;-63
2022/05/09 09:47:05;;;;;;;9.25;3.45;;;;;;;18.23;44.32;102526.66;4966995;28;20047;-64
2022/05/09 09:49:40;;;;;;;10.05;4.10;;;;;;;18.39;44.84;102523.50;4967754;28;20027;-63
2022/05/09 09:52:21;;;;;;;9.68;4.13;;;;;;;18.56;44.63;102521.06;4967143;28;20042;-65
2022/05/09 09:55:08;;;;;;;9.32;4.07;;;;;;;18.46;43.63;102516.75;4967237;28;20070;-64
2022/05/09 09:57:37;;;;;;;12.00;4.53;;;;;;;18.42;43.84;102505.69;4975396;28;20049;-65
2022/05/09 10:00:20;;;;;;;12.40;4.50;;;;;;;18.51;43.66;102512.75;5033611;28;20040;-64
2022/05/09 10:02:48;;;;;;;9.05;4.43;;;;;;;18.68;43.88;102513.09;5036618;28;20485;-65
2022/05/09 10:05:16;;;;;;;10.47;4.10;;;;;;;18.78;42.31;102513.94;5030319;28;20033;-66
2022/05/09 10:07:45;;;;;;;9.48;5.03;;;;;;;18.63;41.30;102505.56;5025276;28;20474;-64
2022/05/09 10:10:26;;;;;;;9.43;4.20;;;;;;;18.96;42.77;102507.00;5022368;28;20033;-63
2022/05/09 10:12:57;;;;;;;11.38;4.57;;;;;;;19.00;41.86;102503.13;5028436;28;20489;-63
2022/05/09 10:15:30;;;;;;;10.80;4.88;;;;;;;18.96;41.10;102493.03;5042998;28;20038;-64
2022/05/09 10:17:58;;;;;;;10.40;4.32;;;;;;;18.94;41.57;102487.91;5027370;28;20029;-63
2022/05/09 10:20:40;;;;;;;10.60;4.13;;;;;;;19.24;43.28;102488.72;5043651;28;20044;-64
2022/05/09 10:26:13;;;;;;;10.23;4.53;;;;;;;19.30;40.60;102482.88;5021726;28;20043;-64
2022/05/09 10:28:45;;;;;;;11.35;4.43;;;;;;;19.37;40.33;102481.31;5028672;28;20028;-66
2022/05/09 10:31:23;;;;;;;11.05;4.93;;;;;;;19.30;40.17;102486.34;5023464;28;20024;-64
2022/05/09 10:34:00;;;;;;;10.80;4.20;;;;;;;19.45;40.67;102475.38;5028455;28;20029;-64
2022/05/09 10:36:29;;;;;;;9.80;4.60;;;;;;;19.56;38.79;102470.75;5029562;28;20025;-63
2022/05/09 10:39:29;;;;;;;9.80;4.50;;;;;;;19.65;39.75;102476.16;5043897;28;20074;-66
2022/05/09 10:42:00;;;;;;;9.57;4.38;;;;;;;19.66;41.93;102472.53;4999073;28;20041;-63
2022/05/09 10:44:47;;;;;;;10.25;4.15;;;;;;;19.91;43.03;102471.06;5044227;28;20041;-67
2022/05/09 10:47:27;;;;;;;8.38;3.97;;;;;;;19.97;41.23;102467.84;5038174;28;20374;-63
2022/05/09 10:49:56;;;;;;;11.05;4.43;;;;;;;19.92;39.05;102468.28;5029707;28;20037;-62
2022/05/09 10:52:27;;;;;;;9.85;3.97;;;;;;;20.12;40.27;102463.72;5034992;28;20127;-63
2022/05/09 10:55:17;;;;;;;10.93;5.20;;;;;;;20.00;38.69;102465.72;5037059;28;20116;-63
2022/05/09 10:57:50;;;;;;;10.65;4.60;;;;;;;19.91;38.85;102456.09;5025193;28;20048;-63
2022/05/09 11:00:22;;;;;;;11.38;4.60;;;;;;;20.10;40.47;102455.97;5030616;28;20031;-65
2022/05/09 11:02:56;;;;;;;9.70;4.72;;;;;;;20.02;39.56;102463.78;5034539;28;20540;-63
2022/05/09 11:05:24;;;;;;;9.82;4.40;;;;;;;20.47;39.08;102449.78;5026611;28;20112;-63
2022/05/09 11:08:02;;;;;;;11.50;5.10;;;;;;;20.50;37.72;102459.22;5035895;28;20040;-63
2022/05/09 11:10:43;;;;;;;11.07;5.20;;;;;;;20.61;38.02;102449.25;5033591;28;20033;-63
2022/05/09 11:13:21;;;;;;;11.00;5.30;;;;;;;20.57;37.33;102440.00;5038219;28;20060;-65
2022/05/09 11:15:51;;;;;;;9.50;4.45;;;;;;;20.72;37.75;102445.56;5025878;28;20132;-65
2022/05/09 11:18:39;;;;;;;;;;;;;;;20.98;40.18;102437.66;5035274;28;20037;-65
2022/05/09 11:21:21;;;;;;;12.20;5.35;;;;;;;21.09;37.71;102437.41;5034902;28;19917;-65
2022/05/09 11:23:53;;;;;;;10.02;4.88;;;;;;;20.98;37.50;102423.66;5024513;28;20029;-63
2022/05/09 11:26:33;;;;;;;11.15;5.03;;;;;;;21.15;37.37;102426.25;5041628;28;20033;-63
2022/05/09 11:29:16;;;;;;;10.50;5.13;;;;;;;21.28;37.33;102419.75;5046457;28;20567;-63
2022/05/09 11:31:53;;;;;;;9.98;4.63;;;;;;;21.47;37.29;102419.53;5046785;28;20029;-63
2022/05/09 11:34:34;;;;;;;10.57;4.60;;;;;;;21.54;36.86;102436.38;5034934;28;20037;-64
2022/05/09 11:37:26;;;;;;;9.93;4.75;;;;;;;21.31;36.50;102417.63;5026397;28;20032;-63
2022/05/09 11:40:30;;;;;;;11.70;4.75;;;;;;;21.18;37.62;102415.41;5019516;28;20499;-63
2022/05/09 11:46:01;;;;;;;9.73;5.03;;;;;;;21.33;36.81;102412.19;5027776;28;20036;-63
2022/05/09 11:48:50;;;;;;;10.70;4.95;;;;;;;21.52;38.00;102406.69;5026763;28;20025;-63
2022/05/09 11:51:34;;;;;;;14.75;5.70;;;;;;;21.61;37.86;102400.44;5026920;28;20087;-68